sensor_id;sensor_type;location;lat;lon;timestamp;pressure;altitude;pressure_sealevel;temperature;humidity
39769;BME280;38939;47.824;14.642;2023-04-27T00:00:54;96994.66;;;7.74;78.84
39769;BME280;38939;47.824;14.642;2023-04-27T00:01:56;96995.28;;;7.76;78.77
39769;BME280;38939;47.824;14.642;2023-04-27T00:02:58;96997.50;;;7.79;78.81
39769;BME280;38939;47.824;14.642;2023-04-27T00:04:01;96993.13;;;7.80;78.27
39769;BME280;38939;47.824;14.642;2023-04-27T00:05:05;96999.22;;;7.72;79.09
39769;BME280;38939;47.824;14.642;2023-04-27T00:06:07;96999.06;;;7.74;79.17
39769;BME280;38939;47.824;14.642;2023-04-27T00:07:10;96998.22;;;7.73;78.56
39769;BME280;38939;47.824;14.642;2023-04-27T00:08:12;96998.44;;;7.72;79.35
39769;BME280;38939;47.824;14.642;2023-04-27T00:09:14;96997.69;;;7.63;79.75
39769;BME280;38939;47.824;14.642;2023-04-27T00:10:16;97000.50;;;7.61;80.29
39769;BME280;38939;47.824;14.642;2023-04-27T00:11:18;96994.47;;;7.61;80.43
39769;BME280;38939;47.824;14.642;2023-04-27T00:12:20;96992.34;;;7.65;80.77
39769;BME280;38939;47.824;14.642;2023-04-27T00:13:22;96985.97;;;7.67;80.26
39769;BME280;38939;47.824;14.642;2023-04-27T00:14:24;96986.59;;;7.69;80.28
39769;BME280;38939;47.824;14.642;2023-04-27T00:15:29;96983.38;;;7.67;79.82
39769;BME280;38939;47.824;14.642;2023-04-27T00:16:31;96983.03;;;7.70;79.54
39769;BME280;38939;47.824;14.642;2023-04-27T00:17:34;96985.25;;;7.73;79.56
39769;BME280;38939;47.824;14.642;2023-04-27T00:18:36;96983.25;;;7.75;79.99
39769;BME280;38939;47.824;14.642;2023-04-27T00:19:38;96981.50;;;7.76;79.68
39769;BME280;38939;47.824;14.642;2023-04-27T00:20:42;96978.63;;;7.71;80.19
39769;BME280;38939;47.824;14.642;2023-04-27T00:21:45;96976.47;;;7.74;79.26
39769;BME280;38939;47.824;14.642;2023-04-27T00:22:47;96981.28;;;7.77;79.06
39769;BME280;38939;47.824;14.642;2023-04-27T00:23:49;96984.34;;;7.81;79.33
39769;BME280;38939;47.824;14.642;2023-04-27T00:24:50;96983.16;;;7.84;78.24
39769;BME280;38939;47.824;14.642;2023-04-27T00:25:52;96980.31;;;7.78;79.71
39769;BME280;38939;47.824;14.642;2023-04-27T00:26:54;96978.28;;;7.74;79.52
39769;BME280;38939;47.824;14.642;2023-04-27T00:27:57;96987.66;;;7.75;79.02
39769;BME280;38939;47.824;14.642;2023-04-27T00:28:58;96985.69;;;7.77;79.87
39769;BME280;38939;47.824;14.642;2023-04-27T00:30:00;96982.66;;;7.73;80.21
39769;BME280;38939;47.824;14.642;2023-04-27T00:31:02;96981.50;;;7.76;79.85
39769;BME280;38939;47.824;14.642;2023-04-27T00:32:05;96977.91;;;7.77;79.83
39769;BME280;38939;47.824;14.642;2023-04-27T00:33:08;96984.72;;;7.78;79.30
39769;BME280;38939;47.824;14.642;2023-04-27T00:34:10;96985.50;;;7.78;79.08
39769;BME280;38939;47.824;14.642;2023-04-27T00:35:12;96981.13;;;7.79;79.06
39769;BME280;38939;47.824;14.642;2023-04-27T00:36:14;96985.50;;;7.78;78.49
39769;BME280;38939;47.824;14.642;2023-04-27T00:37:15;96975.31;;;7.77;79.53
39769;BME280;38939;47.824;14.642;2023-04-27T00:38:19;96982.28;;;7.76;78.45
39769;BME280;38939;47.824;14.642;2023-04-27T00:39:21;96980.66;;;7.75;79.32
39769;BME280;38939;47.824;14.642;2023-04-27T00:40:23;96976.03;;;7.71;79.09
39769;BME280;38939;47.824;14.642;2023-04-27T00:41:25;96972.00;;;7.68;79.21
39769;BME280;38939;47.824;14.642;2023-04-27T00:42:26;96975.50;;;7.60;80.23
39769;BME280;38939;47.824;14.642;2023-04-27T00:43:28;96970.06;;;7.40;80.99
39769;BME280;38939;47.824;14.642;2023-04-27T00:44:31;96976.97;;;7.33;80.30
39769;BME280;38939;47.824;14.642;2023-04-27T00:45:35;96974.38;;;7.33;80.99
39769;BME280;38939;47.824;14.642;2023-04-27T00:46:39;96985.00;;;7.38;81.23
39769;BME280;38939;47.824;14.642;2023-04-27T00:47:42;96976.88;;;7.41;80.70
39769;BME280;38939;47.824;14.642;2023-04-27T00:48:44;96981.53;;;7.46;80.06
39769;BME280;38939;47.824;14.642;2023-04-27T00:49:46;96977.91;;;7.47;80.47
39769;BME280;38939;47.824;14.642;2023-04-27T00:50:49;96979.09;;;7.45;80.24
39769;BME280;38939;47.824;14.642;2023-04-27T00:51:51;96977.13;;;7.47;80.57
39769;BME280;38939;47.824;14.642;2023-04-27T00:52:52;96975.16;;;7.49;80.49
39769;BME280;38939;47.824;14.642;2023-04-27T00:53:55;96973.97;;;7.51;80.21
39769;BME280;38939;47.824;14.642;2023-04-27T00:54:57;96972.00;;;7.53;79.12
39769;BME280;38939;47.824;14.642;2023-04-27T00:55:59;96975.94;;;7.49;80.06
39769;BME280;38939;47.824;14.642;2023-04-27T00:57:01;96981.16;;;7.49;79.96
39769;BME280;38939;47.824;14.642;2023-04-27T00:58:04;96979.00;;;7.53;79.65
39769;BME280;38939;47.824;14.642;2023-04-27T00:59:06;96976.41;;;7.53;79.66
39769;BME280;38939;47.824;14.642;2023-04-27T01:00:08;96969.25;;;7.55;80.17
39769;BME280;38939;47.824;14.642;2023-04-27T01:01:11;96965.66;;;7.56;79.72
39769;BME280;38939;47.824;14.642;2023-04-27T01:02:13;96971.50;;;7.58;79.52
39769;BME280;38939;47.824;14.642;2023-04-27T01:03:15;96965.22;;;7.52;79.46
39769;BME280;38939;47.824;14.642;2023-04-27T01:04:18;96965.94;;;7.46;79.40
39769;BME280;38939;47.824;14.642;2023-04-27T01:05:20;96970.06;;;7.40;79.93
39769;BME280;38939;47.824;14.642;2023-04-27T01:06:22;96972.66;;;7.40;79.13
39769;BME280;38939;47.824;14.642;2023-04-27T01:07:25;96972.47;;;7.42;79.75
39769;BME280;38939;47.824;14.642;2023-04-27T01:08:27;96966.91;;;7.45;79.68
39769;BME280;38939;47.824;14.642;2023-04-27T01:09:29;96973.56;;;7.48;79.82
39769;BME280;38939;47.824;14.642;2023-04-27T01:10:32;96974.53;;;7.47;79.43
39769;BME280;38939;47.824;14.642;2023-04-27T01:11:34;96966.28;;;7.43;80.06
39769;BME280;38939;47.824;14.642;2023-04-27T01:12:36;96968.09;;;7.43;79.93
39769;BME280;38939;47.824;14.642;2023-04-27T01:13:38;96969.72;;;7.44;80.09
39769;BME280;38939;47.824;14.642;2023-04-27T01:14:39;96970.84;;;7.41;79.90
39769;BME280;38939;47.824;14.642;2023-04-27T01:15:41;96968.00;;;7.36;80.64
39769;BME280;38939;47.824;14.642;2023-04-27T01:16:46;96970.94;;;7.33;80.58
39769;BME280;38939;47.824;14.642;2023-04-27T01:17:48;96974.88;;;7.29;80.58
39769;BME280;38939;47.824;14.642;2023-04-27T01:18:50;96969.53;;;7.30;80.71
39769;BME280;38939;47.824;14.642;2023-04-27T01:19:52;96973.53;;;7.33;80.69
39769;BME280;38939;47.824;14.642;2023-04-27T01:20:56;96971.41;;;7.36;80.55
39769;BME280;38939;47.824;14.642;2023-04-27T01:21:57;96971.06;;;7.39;80.61
39769;BME280;38939;47.824;14.642;2023-04-27T01:22:59;96971.84;;;7.40;80.09
39769;BME280;38939;47.824;14.642;2023-04-27T01:24:03;96973.03;;;7.37;80.75
39769;BME280;38939;47.824;14.642;2023-04-27T01:25:05;96968.97;;;7.35;80.63
39769;BME280;38939;47.824;14.642;2023-04-27T01:26:08;96974.38;;;7.33;80.16
39769;BME280;38939;47.824;14.642;2023-04-27T01:27:14;96973.13;;;7.29;80.42
39769;BME280;38939;47.824;14.642;2023-04-27T01:28:16;96971.16;;;7.31;79.85
39769;BME280;38939;47.824;14.642;2023-04-27T01:29:18;96970.78;;;7.34;79.49
39769;BME280;38939;47.824;14.642;2023-04-27T01:30:20;96971.41;;;7.36;79.60
39769;BME280;38939;47.824;14.642;2023-04-27T01:31:25;96977.22;;;7.38;79.25
39769;BME280;38939;47.824;14.642;2023-04-27T01:32:27;96975.63;;;7.37;79.22
39769;BME280;38939;47.824;14.642;2023-04-27T01:33:29;96968.91;;;7.28;80.11
39769;BME280;38939;47.824;14.642;2023-04-27T01:34:31;96973.84;;;7.23;80.05
39769;BME280;38939;47.824;14.642;2023-04-27T01:35:33;96977.56;;;7.20;80.34
39769;BME280;38939;47.824;14.642;2023-04-27T01:36:35;96971.25;;;7.23;80.41
39769;BME280;38939;47.824;14.642;2023-04-27T01:37:37;96971.66;;;7.27;79.81
39769;BME280;38939;47.824;14.642;2023-04-27T01:38:39;96972.66;;;7.26;79.83
39769;BME280;38939;47.824;14.642;2023-04-27T01:39:41;96976.06;;;7.26;80.25
39769;BME280;38939;47.824;14.642;2023-04-27T01:40:43;96971.88;;;7.25;79.69
39769;BME280;38939;47.824;14.642;2023-04-27T01:41:45;96970.88;;;7.26;80.24
39769;BME280;38939;47.824;14.642;2023-04-27T01:42:47;96973.28;;;7.28;80.04
39769;BME280;38939;47.824;14.642;2023-04-27T01:43:49;96973.19;;;7.21;80.21
39769;BME280;38939;47.824;14.642;2023-04-27T01:44:51;96973.56;;;7.18;79.71
39769;BME280;38939;47.824;14.642;2023-04-27T01:45:53;96973.91;;;7.15;81.22
39769;BME280;38939;47.824;14.642;2023-04-27T01:46:54;96969.97;;;7.19;80.24
39769;BME280;38939;47.824;14.642;2023-04-27T01:47:56;96977.22;;;7.24;79.55
39769;BME280;38939;47.824;14.642;2023-04-27T01:48:58;96974.25;;;7.27;79.32
39769;BME280;38939;47.824;14.642;2023-04-27T01:50:00;96978.31;;;7.29;79.89
39769;BME280;38939;47.824;14.642;2023-04-27T01:51:02;96977.13;;;7.32;79.17
39769;BME280;38939;47.824;14.642;2023-04-27T01:52:04;96970.94;;;7.33;78.68
39769;BME280;38939;47.824;14.642;2023-04-27T01:53:06;96977.75;;;7.34;79.50
39769;BME280;38939;47.824;14.642;2023-04-27T01:54:08;96982.16;;;7.33;79.40
39769;BME280;38939;47.824;14.642;2023-04-27T01:55:10;96978.56;;;7.34;79.38
39769;BME280;38939;47.824;14.642;2023-04-27T01:56:12;96979.38;;;7.35;79.20
39769;BME280;38939;47.824;14.642;2023-04-27T01:57:14;96976.59;;;7.36;78.64
39769;BME280;38939;47.824;14.642;2023-04-27T01:58:17;96981.97;;;7.35;78.65
39769;BME280;38939;47.824;14.642;2023-04-27T01:59:18;96974.72;;;7.30;79.11
39769;BME280;38939;47.824;14.642;2023-04-27T02:00:20;96971.31;;;7.30;79.19
39769;BME280;38939;47.824;14.642;2023-04-27T02:01:22;96974.72;;;7.30;79.42
39769;BME280;38939;47.824;14.642;2023-04-27T02:02:24;96975.50;;;7.31;79.61
39769;BME280;38939;47.824;14.642;2023-04-27T02:03:27;96981.31;;;7.33;79.04
39769;BME280;38939;47.824;14.642;2023-04-27T02:04:29;96976.50;;;7.30;79.60
39769;BME280;38939;47.824;14.642;2023-04-27T02:05:31;96969.97;;;7.19;80.41
39769;BME280;38939;47.824;14.642;2023-04-27T02:06:33;96975.69;;;7.14;79.59
39769;BME280;38939;47.824;14.642;2023-04-27T02:07:34;96968.69;;;7.15;79.46
39769;BME280;38939;47.824;14.642;2023-04-27T02:08:36;96971.94;;;7.17;79.80
39769;BME280;38939;47.824;14.642;2023-04-27T02:09:38;96970.97;;;7.18;80.10
39769;BME280;38939;47.824;14.642;2023-04-27T02:10:40;96971.59;;;7.20;79.53
39769;BME280;38939;47.824;14.642;2023-04-27T02:11:42;96974.81;;;7.22;79.92
39769;BME280;38939;47.824;14.642;2023-04-27T02:12:44;96969.16;;;7.18;79.73
39769;BME280;38939;47.824;14.642;2023-04-27T02:13:46;96965.31;;;7.14;79.97
39769;BME280;38939;47.824;14.642;2023-04-27T02:14:49;96974.72;;;7.15;80.19
39769;BME280;38939;47.824;14.642;2023-04-27T02:15:51;96977.94;;;7.17;79.89
39769;BME280;38939;47.824;14.642;2023-04-27T02:16:53;96980.53;;;7.17;79.89
39769;BME280;38939;47.824;14.642;2023-04-27T02:17:55;96983.13;;;7.17;79.77
39769;BME280;38939;47.824;14.642;2023-04-27T02:18:57;96985.09;;;7.15;79.64
39769;BME280;38939;47.824;14.642;2023-04-27T02:20:00;96977.81;;;7.11;79.24
39769;BME280;38939;47.824;14.642;2023-04-27T02:21:06;96986.63;;;7.10;79.54
39769;BME280;38939;47.824;14.642;2023-04-27T02:22:08;96980.41;;;7.11;79.90
39769;BME280;38939;47.824;14.642;2023-04-27T02:23:10;96990.00;;;7.10;79.00
39769;BME280;38939;47.824;14.642;2023-04-27T02:24:12;96983.66;;;7.13;79.78
39769;BME280;38939;47.824;14.642;2023-04-27T02:25:15;96984.28;;;7.15;79.23
39769;BME280;38939;47.824;14.642;2023-04-27T02:26:17;96986.69;;;7.16;80.08
39769;BME280;38939;47.824;14.642;2023-04-27T02:27:20;96987.50;;;7.17;79.32
39769;BME280;38939;47.824;14.642;2023-04-27T02:28:22;96987.94;;;7.20;79.66
39769;BME280;38939;47.824;14.642;2023-04-27T02:29:28;96986.16;;;7.21;78.99
39769;BME280;38939;47.824;14.642;2023-04-27T02:30:30;96986.81;;;7.23;79.16
39769;BME280;38939;47.824;14.642;2023-04-27T02:31:32;96986.81;;;7.23;79.36
39769;BME280;38939;47.824;14.642;2023-04-27T02:32:34;96986.63;;;7.25;78.59
39769;BME280;38939;47.824;14.642;2023-04-27T02:33:36;96991.88;;;7.16;79.75
39769;BME280;38939;47.824;14.642;2023-04-27T02:34:38;96989.53;;;7.07;80.52
39769;BME280;38939;47.824;14.642;2023-04-27T02:35:40;96992.84;;;7.00;80.84
39769;BME280;38939;47.824;14.642;2023-04-27T02:36:42;96995.81;;;6.97;81.35
39769;BME280;38939;47.824;14.642;2023-04-27T02:37:44;96989.63;;;6.98;80.75
39769;BME280;38939;47.824;14.642;2023-04-27T02:38:46;96981.22;;;6.96;81.70
39769;BME280;38939;47.824;14.642;2023-04-27T02:39:48;96989.53;;;6.92;82.61
39769;BME280;38939;47.824;14.642;2023-04-27T02:40:53;96982.09;;;6.89;82.23
39769;BME280;38939;47.824;14.642;2023-04-27T02:41:55;96988.72;;;6.91;82.30
39769;BME280;38939;47.824;14.642;2023-04-27T02:42:57;96992.94;;;6.92;82.70
39769;BME280;38939;47.824;14.642;2023-04-27T02:43:59;96995.88;;;6.89;83.33
39769;BME280;38939;47.824;14.642;2023-04-27T02:45:01;96992.66;;;6.87;82.81
39769;BME280;38939;47.824;14.642;2023-04-27T02:46:03;96987.47;;;6.87;83.26
39769;BME280;38939;47.824;14.642;2023-04-27T02:47:05;96995.25;;;6.87;83.34
39769;BME280;38939;47.824;14.642;2023-04-27T02:48:07;96999.19;;;6.83;84.21
39769;BME280;38939;47.824;14.642;2023-04-27T02:49:10;96993.38;;;6.81;84.23
39769;BME280;38939;47.824;14.642;2023-04-27T02:50:12;97003.75;;;6.81;83.59
39769;BME280;38939;47.824;14.642;2023-04-27T02:51:14;96995.66;;;6.76;83.96
39769;BME280;38939;47.824;14.642;2023-04-27T02:52:16;97001.16;;;6.81;83.59
39769;BME280;38939;47.824;14.642;2023-04-27T02:53:18;96993.47;;;6.88;83.66
39769;BME280;38939;47.824;14.642;2023-04-27T02:54:20;97000.06;;;6.90;82.84
39769;BME280;38939;47.824;14.642;2023-04-27T02:55:21;97000.44;;;6.87;83.83
39769;BME280;38939;47.824;14.642;2023-04-27T02:56:23;96999.44;;;6.88;83.76
39769;BME280;38939;47.824;14.642;2023-04-27T02:57:26;96993.75;;;6.93;83.10
39769;BME280;38939;47.824;14.642;2023-04-27T02:58:28;97000.38;;;6.95;83.45
39769;BME280;38939;47.824;14.642;2023-04-27T02:59:30;96989.47;;;7.00;83.11
39769;BME280;38939;47.824;14.642;2023-04-27T03:00:32;96990.88;;;7.03;82.18
39769;BME280;38939;47.824;14.642;2023-04-27T03:01:33;96992.34;;;7.05;82.54
39769;BME280;38939;47.824;14.642;2023-04-27T03:02:35;96996.91;;;7.03;81.99
39769;BME280;38939;47.824;14.642;2023-04-27T03:03:38;96987.16;;;7.05;81.90
39769;BME280;38939;47.824;14.642;2023-04-27T03:04:40;96990.16;;;7.09;81.07
39769;BME280;38939;47.824;14.642;2023-04-27T03:05:42;96986.63;;;7.10;81.00
39769;BME280;38939;47.824;14.642;2023-04-27T03:06:44;96990.16;;;7.09;82.11
39769;BME280;38939;47.824;14.642;2023-04-27T03:07:46;96987.41;;;7.10;82.33
39769;BME280;38939;47.824;14.642;2023-04-27T03:08:48;96985.63;;;7.11;82.06
39769;BME280;38939;47.824;14.642;2023-04-27T03:09:50;96976.06;;;7.11;82.15
39769;BME280;38939;47.824;14.642;2023-04-27T03:10:52;96983.03;;;7.11;82.24
39769;BME280;38939;47.824;14.642;2023-04-27T03:11:54;96982.22;;;7.10;81.95
39769;BME280;38939;47.824;14.642;2023-04-27T03:12:56;96985.28;;;7.14;81.54
39769;BME280;38939;47.824;14.642;2023-04-27T03:13:58;96989.03;;;7.11;82.53
39769;BME280;38939;47.824;14.642;2023-04-27T03:15:00;96989.03;;;7.11;82.13
39769;BME280;38939;47.824;14.642;2023-04-27T03:16:02;96986.44;;;7.11;81.31
39769;BME280;38939;47.824;14.642;2023-04-27T03:17:04;96994.84;;;7.13;81.55
39769;BME280;38939;47.824;14.642;2023-04-27T03:18:06;96989.84;;;7.12;82.35
39769;BME280;38939;47.824;14.642;2023-04-27T03:19:08;96986.44;;;7.11;82.06
39769;BME280;38939;47.824;14.642;2023-04-27T03:20:10;96991.63;;;7.11;82.58
39769;BME280;38939;47.824;14.642;2023-04-27T03:21:12;96984.00;;;7.10;81.94
39769;BME280;38939;47.824;14.642;2023-04-27T03:22:14;96983.38;;;7.08;82.18
39769;BME280;38939;47.824;14.642;2023-04-27T03:23:16;96987.41;;;7.10;82.44
39769;BME280;38939;47.824;14.642;2023-04-27T03:24:18;96976.84;;;7.12;82.55
39769;BME280;38939;47.824;14.642;2023-04-27T03:25:20;96979.72;;;7.17;82.69
39769;BME280;38939;47.824;14.642;2023-04-27T03:26:22;96985.53;;;7.19;82.73
39769;BME280;38939;47.824;14.642;2023-04-27T03:27:24;96983.56;;;7.21;81.40
39769;BME280;38939;47.824;14.642;2023-04-27T03:28:26;96982.41;;;7.24;81.61
39769;BME280;38939;47.824;14.642;2023-04-27T03:29:28;96983.84;;;7.26;82.31
39769;BME280;38939;47.824;14.642;2023-04-27T03:30:31;96980.91;;;7.29;81.30
39769;BME280;38939;47.824;14.642;2023-04-27T03:31:33;96976.06;;;7.26;81.23
39769;BME280;38939;47.824;14.642;2023-04-27T03:32:35;96981.63;;;7.23;82.13
39769;BME280;38939;47.824;14.642;2023-04-27T03:33:37;96980.78;;;7.22;81.40
39769;BME280;38939;47.824;14.642;2023-04-27T03:34:39;96974.63;;;7.24;82.49
39769;BME280;38939;47.824;14.642;2023-04-27T03:35:41;96975.53;;;7.16;82.03
39769;BME280;38939;47.824;14.642;2023-04-27T03:36:43;96979.09;;;7.15;82.40
39769;BME280;38939;47.824;14.642;2023-04-27T03:37:45;96979.09;;;7.15;82.09
39769;BME280;38939;47.824;14.642;2023-04-27T03:38:47;96981.88;;;7.13;82.61
39769;BME280;38939;47.824;14.642;2023-04-27T03:39:49;96975.88;;;7.13;82.73
39769;BME280;38939;47.824;14.642;2023-04-27T03:40:52;96978.28;;;7.14;82.48
39769;BME280;38939;47.824;14.642;2023-04-27T03:41:54;96968.69;;;7.15;82.45
39769;BME280;38939;47.824;14.642;2023-04-27T03:42:56;96973.09;;;7.14;82.47
39769;BME280;38939;47.824;14.642;2023-04-27T03:43:59;96980.88;;;7.14;82.14
39769;BME280;38939;47.824;14.642;2023-04-27T03:45:01;96979.28;;;7.13;81.23
39769;BME280;38939;47.824;14.642;2023-04-27T03:46:04;96973.72;;;7.16;81.71
39769;BME280;38939;47.824;14.642;2023-04-27T03:47:06;96978.56;;;7.19;81.38
39769;BME280;38939;47.824;14.642;2023-04-27T03:48:10;96983.56;;;7.21;81.94
39769;BME280;38939;47.824;14.642;2023-04-27T03:49:12;96984.38;;;7.21;81.94
39769;BME280;38939;47.824;14.642;2023-04-27T03:50:14;96980.97;;;7.21;81.37
39769;BME280;38939;47.824;14.642;2023-04-27T03:51:16;96980.63;;;7.24;82.19
39769;BME280;38939;47.824;14.642;2023-04-27T03:52:19;96979.81;;;7.24;81.00
39769;BME280;38939;47.824;14.642;2023-04-27T03:53:21;96985.91;;;7.16;82.44
39769;BME280;38939;47.824;14.642;2023-04-27T03:54:23;96985.91;;;7.16;81.65
39769;BME280;38939;47.824;14.642;2023-04-27T03:55:25;96984.72;;;7.18;81.96
39769;BME280;38939;47.824;14.642;2023-04-27T03:56:27;96988.13;;;7.19;80.88
39769;BME280;38939;47.824;14.642;2023-04-27T03:57:29;96988.13;;;7.19;81.66
39769;BME280;38939;47.824;14.642;2023-04-27T03:58:31;96987.16;;;7.20;81.48
39769;BME280;38939;47.824;14.642;2023-04-27T03:59:32;96980.78;;;7.22;81.05
39769;BME280;38939;47.824;14.642;2023-04-27T04:00:35;96980.63;;;7.24;80.86
39769;BME280;38939;47.824;14.642;2023-04-27T04:01:37;96984.84;;;7.25;81.12
39769;BME280;38939;47.824;14.642;2023-04-27T04:02:40;96985.97;;;7.22;80.84
39769;BME280;38939;47.824;14.642;2023-04-27T04:03:43;96987.16;;;7.20;80.91
39769;BME280;38939;47.824;14.642;2023-04-27T04:04:45;96985.53;;;7.19;80.49
39769;BME280;38939;47.824;14.642;2023-04-27T04:05:47;96979.38;;;7.20;80.43
39769;BME280;38939;47.824;14.642;2023-04-27T04:06:49;96986.53;;;7.18;81.42
39769;BME280;38939;47.824;14.642;2023-04-27T04:07:51;96982.31;;;7.17;81.03
39769;BME280;38939;47.824;14.642;2023-04-27T04:08:53;96989.28;;;7.16;80.64
39769;BME280;38939;47.824;14.642;2023-04-27T04:09:56;96987.50;;;7.17;80.94
39769;BME280;38939;47.824;14.642;2023-04-27T04:10:57;96988.13;;;7.19;80.97
39769;BME280;38939;47.824;14.642;2023-04-27T04:11:59;96990.72;;;7.19;81.71
39769;BME280;38939;47.824;14.642;2023-04-27T04:13:02;96998.88;;;7.16;81.73
39769;BME280;38939;47.824;14.642;2023-04-27T04:14:04;96997.88;;;7.17;80.89
39769;BME280;38939;47.824;14.642;2023-04-27T04:15:06;96985.72;;;7.17;81.59
39769;BME280;38939;47.824;14.642;2023-04-27T04:16:08;96992.34;;;7.20;81.32
39769;BME280;38939;47.824;14.642;2023-04-27T04:17:10;96998.16;;;7.22;80.79
39769;BME280;38939;47.824;14.642;2023-04-27T04:18:12;96993.69;;;7.16;81.91
39769;BME280;38939;47.824;14.642;2023-04-27T04:19:14;96998.41;;;7.12;81.67
39769;BME280;38939;47.824;14.642;2023-04-27T04:20:17;96998.59;;;7.11;82.38
39769;BME280;38939;47.824;14.642;2023-04-27T04:21:19;96999.75;;;7.08;82.30
39769;BME280;38939;47.824;14.642;2023-04-27T04:22:21;96997.00;;;7.10;81.97
39769;BME280;38939;47.824;14.642;2023-04-27T04:23:23;96999.22;;;7.13;81.98
39769;BME280;38939;47.824;14.642;2023-04-27T04:24:25;97002.44;;;7.15;81.17
39769;BME280;38939;47.824;14.642;2023-04-27T04:25:27;96994.31;;;7.18;81.41
39769;BME280;38939;47.824;14.642;2023-04-27T04:26:29;97001.94;;;7.19;81.68
39769;BME280;38939;47.824;14.642;2023-04-27T04:27:31;96997.88;;;7.17;82.05
39769;BME280;38939;47.824;14.642;2023-04-27T04:28:34;96998.59;;;7.11;82.78
39769;BME280;38939;47.824;14.642;2023-04-27T04:29:37;97006.28;;;7.04;83.45
39769;BME280;38939;47.824;14.642;2023-04-27T04:30:39;97001.00;;;6.97;83.43
39769;BME280;38939;47.824;14.642;2023-04-27T04:31:41;97007.16;;;6.96;83.69
39769;BME280;38939;47.824;14.642;2023-04-27T04:32:43;97007.97;;;6.97;83.14
39769;BME280;38939;47.824;14.642;2023-04-27T04:33:45;97011.00;;;7.00;84.14
39769;BME280;38939;47.824;14.642;2023-04-27T04:34:48;97004.69;;;7.03;84.10
39769;BME280;38939;47.824;14.642;2023-04-27T04:35:51;97008.53;;;7.07;83.51
39769;BME280;38939;47.824;14.642;2023-04-27T04:36:54;97008.97;;;7.11;82.92
39769;BME280;38939;47.824;14.642;2023-04-27T04:37:58;97009.41;;;7.14;82.25
39769;BME280;38939;47.824;14.642;2023-04-27T04:39:00;97011.84;;;7.16;82.38
39769;BME280;38939;47.824;14.642;2023-04-27T04:40:03;97007.81;;;7.13;83.49
39769;BME280;38939;47.824;14.642;2023-04-27T04:41:09;97011.38;;;7.12;82.80
39769;BME280;38939;47.824;14.642;2023-04-27T04:42:11;97005.84;;;7.15;82.47
39769;BME280;38939;47.824;14.642;2023-04-27T04:43:13;97014.91;;;7.19;82.55
39769;BME280;38939;47.824;14.642;2023-04-27T04:44:15;97017.13;;;7.22;83.28
39769;BME280;38939;47.824;14.642;2023-04-27T04:45:17;97023.94;;;7.24;83.10
39769;BME280;38939;47.824;14.642;2023-04-27T04:46:19;97014.28;;;7.17;83.09
39769;BME280;38939;47.824;14.642;2023-04-27T04:47:22;97019.16;;;7.12;83.71
39769;BME280;38939;47.824;14.642;2023-04-27T04:48:24;97021.69;;;7.06;83.76
39769;BME280;38939;47.824;14.642;2023-04-27T04:49:26;97018.28;;;7.05;84.13
39769;BME280;38939;47.824;14.642;2023-04-27T04:50:28;97023.91;;;7.09;83.71
39769;BME280;38939;47.824;14.642;2023-04-27T04:51:30;97018.38;;;7.12;83.26
39769;BME280;38939;47.824;14.642;2023-04-27T04:52:33;97022.22;;;7.16;83.56
39769;BME280;38939;47.824;14.642;2023-04-27T04:53:35;97024.03;;;7.15;83.33
39769;BME280;38939;47.824;14.642;2023-04-27T04:54:37;97019.81;;;7.14;84.17
39769;BME280;38939;47.824;14.642;2023-04-27T04:55:39;97021.75;;;7.12;83.49
39769;BME280;38939;47.824;14.642;2023-04-27T04:56:41;97019.00;;;7.14;83.59
39769;BME280;38939;47.824;14.642;2023-04-27T04:57:43;97025.78;;;7.15;83.34
39769;BME280;38939;47.824;14.642;2023-04-27T04:58:45;97028.22;;;7.16;83.62
39769;BME280;38939;47.824;14.642;2023-04-27T04:59:47;97020.44;;;7.16;84.60
39769;BME280;38939;47.824;14.642;2023-04-27T05:00:49;97026.06;;;7.20;83.91
39769;BME280;38939;47.824;14.642;2023-04-27T05:01:51;97022.16;;;7.24;83.70
39769;BME280;38939;47.824;14.642;2023-04-27T05:02:56;97027.00;;;7.27;84.02
39769;BME280;38939;47.824;14.642;2023-04-27T05:03:59;97030.00;;;7.31;83.79
39769;BME280;38939;47.824;14.642;2023-04-27T05:05:02;97022.84;;;7.33;82.80
39769;BME280;38939;47.824;14.642;2023-04-27T05:06:04;97025.66;;;7.31;83.24
39769;BME280;38939;47.824;14.642;2023-04-27T05:07:06;97031.47;;;7.33;83.57
39769;BME280;38939;47.824;14.642;2023-04-27T05:08:08;97030.94;;;7.38;83.42
39769;BME280;38939;47.824;14.642;2023-04-27T05:09:10;97026.19;;;7.41;83.30
39769;BME280;38939;47.824;14.642;2023-04-27T05:10:12;97025.81;;;7.45;83.05
39769;BME280;38939;47.824;14.642;2023-04-27T05:11:14;97027.06;;;7.49;82.00
39769;BME280;38939;47.824;14.642;2023-04-27T05:12:16;97029.34;;;7.52;83.03
39769;BME280;38939;47.824;14.642;2023-04-27T05:13:19;97029.34;;;7.52;82.68
39769;BME280;38939;47.824;14.642;2023-04-27T05:14:21;97025.47;;;7.48;83.39
39769;BME280;38939;47.824;14.642;2023-04-27T05:15:23;97030.66;;;7.48;83.36
39769;BME280;38939;47.824;14.642;2023-04-27T05:16:24;97033.06;;;7.49;83.72
39769;BME280;38939;47.824;14.642;2023-04-27T05:17:27;97042.47;;;7.50;83.46
39769;BME280;38939;47.824;14.642;2023-04-27T05:18:29;97032.91;;;7.51;83.33
39769;BME280;38939;47.824;14.642;2023-04-27T05:19:31;97034.16;;;7.55;83.33
39769;BME280;38939;47.824;14.642;2023-04-27T05:20:36;97031.22;;;7.58;82.74
39769;BME280;38939;47.824;14.642;2023-04-27T05:21:38;97036.03;;;7.61;83.11
39769;BME280;38939;47.824;14.642;2023-04-27T05:22:40;97037.47;;;7.64;82.95
39769;BME280;38939;47.824;14.642;2023-04-27T05:23:42;97036.31;;;7.66;83.13
39769;BME280;38939;47.824;14.642;2023-04-27T05:24:44;97038.53;;;7.69;82.63
39769;BME280;38939;47.824;14.642;2023-04-27T05:25:46;97048.28;;;7.67;82.43
39769;BME280;38939;47.824;14.642;2023-04-27T05:26:48;97043.94;;;7.68;83.09
39769;BME280;38939;47.824;14.642;2023-04-27T05:27:50;97043.38;;;7.72;81.91
39769;BME280;38939;47.824;14.642;2023-04-27T05:28:52;97046.44;;;7.76;82.50
39769;BME280;38939;47.824;14.642;2023-04-27T05:29:54;97046.59;;;7.74;83.41